Time;durP1;ratioP1;P1;durP2;ratioP2;P2;SDS_P1;SDS_P2;PMS_P1;PMS_P2;Temp;Humidity;BMP_temperature;BMP_pressure;BME280_temperature;BME280_humidity;BME280_pressure;Samples;Min_cycle;Max_cycle;Signal;HPM_P1;HPM_P2
2024/03/10 00:01:18;;;;;;;21.17;16.70;;;12.70;58.90;;;;;;4976078;28;20498;-85
2024/03/10 00:04:03;;;;;;;22.08;18.30;;;12.60;58.20;;;;;;4977685;28;20101;-85
2024/03/10 00:06:47;;;;;;;22.65;19.23;;;12.60;58.30;;;;;;4984258;28;20651;-85
2024/03/10 00:09:31;;;;;;;22.73;18.65;;;12.60;58.30;;;;;;4975090;28;20045;-86
2024/03/10 00:12:16;;;;;;;22.83;19.02;;;12.60;58.40;;;;;;4977993;28;20053;-86
2024/03/10 00:15:00;;;;;;;23.83;18.70;;;12.50;58.20;;;;;;4979404;28;20060;-87
2024/03/10 00:17:45;;;;;;;19.58;16.35;;;12.50;58.30;;;;;;4988289;28;20053;-87
2024/03/10 00:20:30;;;;;;;22.52;17.75;;;12.50;58.30;;;;;;4979039;28;20105;-87
2024/03/10 00:23:14;;;;;;;23.27;17.92;;;12.50;58.40;;;;;;4989861;28;20181;-87
2024/03/10 00:25:59;;;;;;;22.65;19.25;;;12.50;58.50;;;;;;4983775;28;20045;-86
2024/03/10 00:28:44;;;;;;;24.73;17.98;;;12.50;58.50;;;;;;4965302;28;20105;-86
2024/03/10 00:31:30;;;;;;;21.13;17.75;;;12.50;58.50;;;;;;4970678;28;20405;-85
2024/03/10 00:34:14;;;;;;;20.85;17.42;;;12.40;58.50;;;;;;4975833;28;20431;-91
2024/03/10 00:36:59;;;;;;;21.15;17.80;;;12.40;58.50;;;;;;4972964;28;20310;-89
2024/03/10 00:39:44;;;;;;;22.50;17.92;;;12.40;58.50;;;;;;4984433;28;20654;-90
2024/03/10 00:42:29;;;;;;;21.85;17.30;;;12.40;58.60;;;;;;4983780;28;20105;-91
2024/03/10 00:45:13;;;;;;;23.38;18.73;;;12.40;58.60;;;;;;4989209;28;20097;-89
2024/03/10 00:47:59;;;;;;;24.10;17.98;;;12.40;58.70;;;;;;4968625;28;20505;-89
2024/03/10 00:50:47;;;;;;;22.88;17.50;;;12.40;58.70;;;;;;4973504;28;20021;-89
2024/03/10 00:53:33;;;;;;;24.50;19.27;;;12.30;58.60;;;;;;4967811;28;20058;-89
2024/03/10 00:56:19;;;;;;;22.25;19.00;;;12.30;58.60;;;;;;4978341;28;20069;-88
2024/03/10 00:59:03;;;;;;;21.02;17.45;;;12.40;59.50;;;;;;4983028;28;20134;-88
2024/03/10 01:01:48;;;;;;;23.17;19.10;;;12.30;58.70;;;;;;4983732;28;20242;-87
2024/03/10 01:04:33;;;;;;;22.20;18.08;;;12.30;58.80;;;;;;4980881;28;20034;-88
2024/03/10 01:07:18;;;;;;;24.55;19.40;;;12.30;58.80;;;;;;4979671;28;20125;-88
2024/03/10 01:10:03;;;;;;;20.70;17.75;;;12.30;58.90;;;;;;4979815;28;20058;-88
2024/03/10 01:12:48;;;;;;;22.65;18.10;;;12.20;58.80;;;;;;4985591;28;20032;-88
2024/03/10 01:15:33;;;;;;;19.83;17.25;;;12.30;59.00;;;;;;4988245;28;20077;-89
2024/03/10 01:18:18;;;;;;;23.88;18.95;;;12.20;58.90;;;;;;4971486;28;20118;-88
2024/03/10 01:21:03;;;;;;;24.60;18.38;;;12.20;58.90;;;;;;4977742;28;20069;-89
2024/03/10 01:23:48;;;;;;;22.08;17.70;;;12.20;59.00;;;;;;4987028;28;20044;-85
2024/03/10 01:26:32;;;;;;;24.45;18.77;;;12.20;59.10;;;;;;4994332;28;20037;-88
2024/03/10 01:29:17;;;;;;;21.73;18.15;;;12.20;59.10;;;;;;4980415;28;20097;-88
2024/03/10 01:32:03;;;;;;;20.13;17.30;;;12.20;59.10;;;;;;4984504;28;20057;-88
2024/03/10 01:34:48;;;;;;;24.50;18.58;;;12.20;58.90;;;;;;4986225;28;20045;-87
2024/03/10 01:37:33;;;;;;;25.25;19.70;;;12.20;59.30;;;;;;4985125;28;20042;-85
2024/03/10 01:40:18;;;;;;;23.35;18.48;;;12.20;59.30;;;;;;4984070;28;20049;-85
2024/03/10 01:43:03;;;;;;;23.95;18.25;;;12.20;59.40;;;;;;4982128;28;20482;-85
2024/03/10 01:45:52;;;;;;;21.35;18.23;;;12.20;59.40;;;;;;4983675;28;20041;-84
2024/03/10 01:48:39;;;;;;;21.35;18.00;;;12.20;59.50;;;;;;4972917;28;20108;-85
2024/03/10 01:51:23;;;;;;;23.95;19.33;;;12.20;59.50;;;;;;4986739;28;20216;-84
2024/03/10 01:54:11;;;;;;;24.15;19.30;;;12.20;59.60;;;;;;4975135;28;20104;-85
2024/03/10 01:56:56;;;;;;;23.20;18.98;;;12.20;59.60;;;;;;4976179;28;20049;-83
2024/03/10 01:59:41;;;;;;;24.17;19.23;;;12.10;59.40;;;;;;4973692;28;20155;-85
2024/03/10 02:02:25;;;;;;;23.65;17.92;;;12.10;59.50;;;;;;4983925;28;20132;-85
2024/03/10 02:05:10;;;;;;;22.85;18.95;;;12.10;59.50;;;;;;4983544;28;20725;-85
2024/03/10 02:07:56;;;;;;;20.92;17.98;;;12.10;59.60;;;;;;4985191;28;20457;-86
2024/03/10 02:10:48;;;;;;;24.60;19.10;;;12.10;59.60;;;;;;4991315;28;20045;-85
2024/03/10 02:13:32;;;;;;;23.38;20.38;;;12.10;59.70;;;;;;4985528;28;20410;-84
2024/03/10 02:16:17;;;;;;;23.00;18.58;;;12.00;59.60;;;;;;4964907;28;20068;-84
2024/03/10 02:19:02;;;;;;;25.30;20.17;;;12.00;59.60;;;;;;4978820;28;20626;-83
2024/03/10 02:21:47;;;;;;;21.85;18.25;;;12.00;59.60;;;;;;4974346;28;20086;-86
2024/03/10 02:24:36;;;;;;;21.92;18.88;;;12.00;59.70;;;;;;4987720;28;20033;-84
2024/03/10 02:27:22;;;;;;;24.42;20.83;;;12.00;59.80;;;;;;4981849;28;20118;-84
2024/03/10 02:30:19;;;;;;;24.52;20.33;;;12.00;59.80;;;;;;4980005;28;21426;-83
2024/03/10 02:48:19;;;;;;;26.40;20.27;;;11.90;59.80;;;;;;4988893;28;20406;-86
2024/03/10 02:51:04;;;;;;;23.55;19.95;;;11.80;59.70;;;;;;4967868;28;20092;-86
2024/03/10 02:53:49;;;;;;;26.42;20.30;;;11.90;59.90;;;;;;4982846;28;20438;-86
2024/03/10 02:56:33;;;;;;;23.98;18.75;;;11.90;60.00;;;;;;4982465;28;20070;-86
2024/03/10 02:59:17;;;;;;;23.63;19.27;;;11.80;59.90;;;;;;4982219;28;20112;-86
2024/03/10 03:02:02;;;;;;;24.35;20.23;;;11.80;59.90;;;;;;4980223;28;20053;-87
2024/03/10 03:04:47;;;;;;;23.73;20.20;;;11.80;60.00;;;;;;4974180;28;20046;-87
2024/03/10 03:07:33;;;;;;;22.08;19.40;;;11.80;60.00;;;;;;4986463;28;20120;-88
2024/03/10 03:10:17;;;;;;;22.23;19.25;;;11.80;60.00;;;;;;4973571;28;20501;-86
2024/03/10 03:13:02;;;;;;;24.33;19.90;;;11.80;60.10;;;;;;4966677;28;20080;-86
2024/03/10 03:15:47;;;;;;;24.77;19.90;;;11.80;60.10;;;;;;4990969;28;20068;-86
2024/03/10 03:18:31;;;;;;;27.33;21.27;;;11.80;60.20;;;;;;4987724;28;20052;-86
2024/03/10 03:21:16;;;;;;;25.67;21.02;;;11.80;60.20;;;;;;4968512;28;20065;-87
2024/03/10 03:24:01;;;;;;;23.83;19.90;;;11.80;60.30;;;;;;4980355;28;20149;-87
2024/03/10 03:26:46;;;;;;;24.58;20.15;;;11.70;60.10;;;;;;4979728;28;20041;-87
2024/03/10 03:29:31;;;;;;;28.10;20.48;;;11.70;60.20;;;;;;4972835;28;20057;-86
2024/03/10 03:32:16;;;;;;;25.83;20.55;;;11.70;60.20;;;;;;4981485;28;20133;-84
2024/03/10 03:35:01;;;;;;;23.15;20.38;;;11.70;60.20;;;;;;4983250;28;20040;-85
2024/03/10 03:37:45;;;;;;;22.85;19.52;;;11.70;60.30;;;;;;4983093;28;20037;-84
2024/03/10 03:40:30;;;;;;;26.05;20.77;;;11.70;60.30;;;;;;4969707;28;20224;-84
2024/03/10 03:43:15;;;;;;;24.77;19.73;;;11.70;60.80;;;;;;4987871;28;20037;-84
2024/03/10 03:46:00;;;;;;;26.23;21.65;;;11.70;60.30;;;;;;4980923;28;20100;-84
2024/03/10 03:48:45;;;;;;;23.67;19.90;;;11.70;60.40;;;;;;4983329;28;20536;-84
2024/03/10 03:51:30;;;;;;;24.95;20.10;;;11.70;60.40;;;;;;4980960;28;20065;-84
2024/03/10 03:54:14;;;;;;;25.73;20.40;;;11.70;60.40;;;;;;4979088;28;20041;-84
2024/03/10 03:56:59;;;;;;;26.70;19.88;;;11.70;60.50;;;;;;4984203;28;20088;-83
2024/03/10 03:59:44;;;;;;;24.10;20.20;;;11.70;60.50;;;;;;4982357;28;20529;-84
2024/03/10 04:02:28;;;;;;;25.77;20.55;;;11.70;60.60;;;;;;4982749;28;20493;-83
2024/03/10 04:05:14;;;;;;;25.27;20.42;;;11.70;60.60;;;;;;4992027;28;20176;-82
2024/03/10 04:07:59;;;;;;;24.30;20.70;;;11.60;60.40;;;;;;4985881;28;20034;-83
2024/03/10 04:10:43;;;;;;;23.40;19.38;;;11.60;60.50;;;;;;4987135;28;20056;-83
2024/03/10 04:13:27;;;;;;;27.15;19.63;;;11.60;60.50;;;;;;4981461;28;20886;-83
2024/03/10 04:16:12;;;;;;;25.95;21.08;;;11.60;60.60;;;;;;4984564;28;20084;-83
2024/03/10 04:18:57;;;;;;;24.42;21.33;;;11.60;60.60;;;;;;4992535;28;20211;-84
2024/03/10 04:21:41;;;;;;;23.17;19.15;;;11.60;60.60;;;;;;4983676;28;20536;-84
2024/03/10 04:24:26;;;;;;;23.00;20.25;;;11.60;60.70;;;;;;4965122;28;20100;-83
2024/03/10 04:27:10;;;;;;;24.58;20.30;;;11.60;60.70;;;;;;4986586;28;20053;-82
2024/03/10 04:29:55;;;;;;;23.25;19.98;;;11.60;60.70;;;;;;4979737;28;20344;-83
2024/03/10 04:32:40;;;;;;;25.35;20.05;;;11.60;60.80;;;;;;4977815;28;20069;-83
2024/03/10 04:35:24;;;;;;;22.65;19.23;;;11.50;60.60;;;;;;4981977;28;20081;-83
2024/03/10 04:38:09;;;;;;;25.38;19.60;;;11.50;60.70;;;;;;4983380;28;20034;-83
2024/03/10 04:40:53;;;;;;;24.65;20.13;;;11.50;60.70;;;;;;4984794;28;20461;-83
2024/03/10 04:43:39;;;;;;;23.20;20.08;;;11.50;60.70;;;;;;4983603;28;20034;-83
2024/03/10 04:46:23;;;;;;;24.25;19.15;;;11.50;60.70;;;;;;4984154;28;20045;-82
2024/03/10 04:49:09;;;;;;;23.45;19.55;;;11.40;60.60;;;;;;4970965;28;20180;-90
2024/03/10 04:51:53;;;;;;;22.65;19.80;;;11.40;60.60;;;;;;4981975;28;20069;-89
2024/03/10 04:54:38;;;;;;;23.65;20.63;;;11.40;60.70;;;;;;4997909;28;20040;-89
2024/03/10 04:57:24;;;;;;;20.75;18.40;;;11.40;60.80;;;;;;4983697;28;20038;-88
2024/03/10 05:00:10;;;;;;;23.85;20.60;;;11.40;60.80;;;;;;4978271;28;20308;-88
2024/03/10 05:02:55;;;;;;;22.92;19.58;;;11.30;60.70;;;;;;4982296;28;20049;-82
2024/03/10 05:05:40;;;;;;;23.05;19.50;;;11.30;60.70;;;;;;4992710;28;20119;-82
2024/03/10 05:08:24;;;;;;;20.95;18.42;;;11.30;60.70;;;;;;4984105;28;20037;-83
2024/03/10 05:11:09;;;;;;;21.52;17.67;;;11.30;60.80;;;;;;4987764;28;20123;-83
2024/03/10 05:13:54;;;;;;;22.45;18.73;;;11.30;60.80;;;;;;4990701;28;20036;-82
2024/03/10 05:16:38;;;;;;;21.92;19.27;;;11.30;60.80;;;;;;4988430;28;20512;-82
2024/03/10 05:19:23;;;;;;;23.55;19.25;;;11.30;60.90;;;;;;4983723;28;20101;-83
2024/03/10 05:22:09;;;;;;;25.05;19.52;;;11.20;60.70;;;;;;4985279;28;20061;-83
2024/03/10 05:24:54;;;;;;;21.75;18.83;;;11.30;61.00;;;;;;4984327;28;20034;-83
2024/03/10 05:27:41;;;;;;;22.27;19.15;;;11.20;60.80;;;;;;4985167;28;20501;-83
2024/03/10 05:30:25;;;;;;;21.55;18.63;;;11.20;60.80;;;;;;4985416;28;20133;-83
2024/03/10 05:33:14;;;;;;;21.35;18.73;;;11.20;60.90;;;;;;4984032;28;20129;-83
2024/03/10 05:35:58;;;;;;;22.85;18.70;;;11.20;60.90;;;;;;4984754;28;20112;-83
2024/03/10 05:38:43;;;;;;;22.52;18.20;;;11.20;60.90;;;;;;4987950;28;20076;-83
2024/03/10 05:41:28;;;;;;;21.45;17.98;;;11.20;61.00;;;;;;4972391;28;20049;-83
2024/03/10 05:44:14;;;;;;;20.67;17.77;;;11.20;61.00;;;;;;4984689;28;20046;-83
2024/03/10 05:46:58;;;;;;;21.98;17.33;;;11.20;61.00;;;;;;4986798;28;20526;-83
2024/03/10 05:49:44;;;;;;;19.00;16.63;;;11.20;61.10;;;;;;4981982;28;20040;-83
2024/03/10 05:52:29;;;;;;;20.38;17.17;;;11.20;61.10;;;;;;4979249;28;20044;-83
2024/03/10 05:55:13;;;;;;;19.45;17.30;;;11.20;61.10;;;;;;4989724;28;20069;-83
2024/03/10 05:57:58;;;;;;;19.90;17.63;;;11.20;61.10;;;;;;4984987;28;20049;-83
2024/03/10 06:00:42;;;;;;;20.13;17.40;;;11.20;61.20;;;;;;4982121;28;20326;-83
2024/03/10 06:03:26;;;;;;;20.52;17.75;;;11.20;61.20;;;;;;4969464;28;20121;-85
2024/03/10 06:06:11;;;;;;;18.33;15.27;;;11.20;61.20;;;;;;4974098;28;20040;-85
2024/03/10 06:08:56;;;;;;;18.05;15.55;;;11.20;61.20;;;;;;4985494;28;20036;-85
2024/03/10 06:11:41;;;;;;;18.80;14.80;;;11.20;61.80;;;;;;4975741;28;20165;-84
2024/03/10 06:14:25;;;;;;;18.73;15.23;;;11.20;61.30;;;;;;4974269;28;20041;-84
2024/03/10 06:17:10;;;;;;;18.42;15.60;;;11.20;61.30;;;;;;4978613;28;20126;-83
2024/03/10 06:26:01;;;;;;;16.55;13.60;;;11.10;61.20;;;;;;4973608;28;20042;-82
2024/03/10 06:28:47;;;;;;;15.50;13.15;;;11.10;61.20;;;;;;4963738;28;20041;-83
2024/03/10 06:31:32;;;;;;;15.35;12.40;;;11.10;61.20;;;;;;4975974;28;20116;-81
2024/03/10 06:34:17;;;;;;;14.55;12.98;;;11.10;61.30;;;;;;4977809;28;20058;-84
2024/03/10 06:37:02;;;;;;;15.00;13.38;;;11.10;61.30;;;;;;4993897;28;20049;-83
2024/03/10 06:39:46;;;;;;;13.57;12.18;;;11.10;61.30;;;;;;4976880;28;20149;-84
2024/03/10 06:42:32;;;;;;;14.35;12.05;;;11.10;61.40;;;;;;4975544;28;20065;-84
2024/03/10 06:45:17;;;;;;;13.77;11.77;;;11.10;61.40;;;;;;4970226;28;20428;-84
2024/03/10 06:48:01;;;;;;;12.88;11.57;;;11.10;61.40;;;;;;4977403;28;20080;-84
2024/03/10 06:50:46;;;;;;;13.50;11.75;;;11.10;61.40;;;;;;4962954;28;20061;-82
2024/03/10 06:53:32;;;;;;;13.48;10.90;;;11.10;61.50;;;;;;4975021;28;20726;-82
2024/03/10 06:56:16;;;;;;;12.02;10.68;;;11.10;61.50;;;;;;4968507;28;20033;-82
2024/03/10 06:59:02;;;;;;;13.00;11.70;;;11.10;61.50;;;;;;4977888;28;20101;-82
2024/03/10 07:01:47;;;;;;;12.07;10.77;;;11.10;61.50;;;;;;4979204;28;20045;-82
2024/03/10 07:04:32;;;;;;;11.02;9.93;;;11.10;61.50;;;;;;4976608;28;20129;-82
2024/03/10 07:07:17;;;;;;;14.48;10.77;;;11.10;61.50;;;;;;4974322;28;20045;-84
2024/03/10 07:10:01;;;;;;;12.38;10.18;;;11.10;61.50;;;;;;4979101;28;20042;-84
2024/03/10 07:12:46;;;;;;;11.80;10.23;;;11.10;61.60;;;;;;4977706;28;20045;-84
2024/03/10 07:15:31;;;;;;;11.75;10.55;;;11.10;61.60;;;;;;4976329;28;20113;-84
2024/03/10 07:18:16;;;;;;;30.00;11.38;;;11.10;61.60;;;;;;4980712;28;20422;-84
2024/03/10 07:21:00;;;;;;;12.55;10.57;;;11.10;61.60;;;;;;4977171;28;20165;-84
2024/03/10 07:23:46;;;;;;;12.05;10.40;;;11.10;61.60;;;;;;4965221;28;20093;-83
2024/03/10 07:26:34;;;;;;;11.23;10.15;;;11.20;61.70;;;;;;4962768;28;20267;-85
2024/03/10 07:29:18;;;;;;;11.70;10.48;;;11.20;61.80;;;;;;4973622;28;20077;-84
2024/03/10 07:32:05;;;;;;;11.82;10.63;;;11.20;61.80;;;;;;4976685;28;20116;-84
2024/03/10 07:34:50;;;;;;;12.68;11.38;;;11.20;61.80;;;;;;4983539;28;20045;-83
2024/03/10 07:37:35;;;;;;;11.20;9.98;;;11.20;61.80;;;;;;4979292;28;20051;-83
2024/03/10 07:40:23;;;;;;;11.43;10.23;;;11.20;62.30;;;;;;4978926;28;20152;-85
2024/03/10 07:43:08;;;;;;;12.00;10.73;;;11.20;61.80;;;;;;4978594;28;20040;-85
2024/03/10 07:45:52;;;;;;;13.80;10.65;;;11.20;61.80;;;;;;4978422;28;20516;-84
2024/03/10 07:48:37;;;;;;;12.10;10.77;;;11.30;62.00;;;;;;4968462;28;20033;-79
2024/03/10 07:51:24;;;;;;;11.63;10.13;;;11.20;61.80;;;;;;4975202;28;20097;-80
2024/03/10 07:54:10;;;;;;;8.85;7.95;;;11.30;61.90;;;;;;4973024;28;20036;-79
2024/03/10 07:56:54;;;;;;;9.77;8.77;;;11.30;61.90;;;;;;4969840;28;20046;-79
2024/03/10 07:59:39;;;;;;;11.90;10.65;;;11.40;62.50;;;;;;4977615;28;20140;-79
2024/03/10 08:02:25;;;;;;;13.38;10.32;;;11.40;62.60;;;;;;4979619;28;20046;-78
2024/03/10 08:05:13;;;;;;;9.88;8.80;;;11.50;62.90;;;;;;4991175;28;20053;-78
2024/03/10 08:07:57;;;;;;;10.73;9.73;;;11.50;62.90;;;;;;4975472;28;20037;-78
2024/03/10 08:10:43;;;;;;;10.30;9.20;;;11.60;63.00;;;;;;4977650;28;20042;-78
2024/03/10 08:13:27;;;;;;;10.20;9.20;;;11.70;63.20;;;;;;4966008;28;20045;-80
2024/03/10 08:16:13;;;;;;;11.65;8.68;;;11.70;63.20;;;;;;4970786;28;20512;-80
2024/03/10 08:18:58;;;;;;;10.73;9.70;;;11.70;63.10;;;;;;4962262;28;20463;-78
2024/03/10 08:21:42;;;;;;;11.40;10.27;;;11.80;63.30;;;;;;4975838;28;20066;-79
2024/03/10 08:24:27;;;;;;;11.70;10.07;;;11.80;63.20;;;;;;4972861;28;20065;-79
2024/03/10 08:27:12;;;;;;;11.40;10.20;;;11.90;63.20;;;;;;4978324;28;20160;-80
2024/03/10 08:29:56;;;;;;;11.38;10.18;;;11.90;63.20;;;;;;4972918;28;20578;-80
2024/03/10 08:32:41;;;;;;;10.75;9.65;;;12.00;63.30;;;;;;4975956;28;20057;-80
2024/03/10 08:35:25;;;;;;;10.98;9.45;;;12.00;63.30;;;;;;4970756;28;20049;-79
2024/03/10 08:38:10;;;;;;;10.95;9.77;;;12.00;63.20;;;;;;4954973;28;20053;-79
2024/03/10 08:40:55;;;;;;;10.68;9.63;;;12.10;63.30;;;;;;4979337;28;20147;-79
2024/03/10 08:43:39;;;;;;;11.02;9.85;;;12.10;63.30;;;;;;4993982;28;20049;-79
2024/03/10 08:46:24;;;;;;;10.57;9.48;;;12.10;63.20;;;;;;4981012;28;20095;-80
2024/03/10 08:49:08;;;;;;;11.45;10.23;;;12.20;63.40;;;;;;4963633;28;20046;-79
2024/03/10 08:51:54;;;;;;;13.68;10.40;;;12.20;63.30;;;;;;4970403;28;20143;-78
2024/03/10 08:54:38;;;;;;;12.20;10.43;;;12.30;63.40;;;;;;4978564;28;20177;-78
2024/03/10 08:57:27;;;;;;;10.48;9.38;;;12.30;63.30;;;;;;4978426;28;20423;-78
2024/03/10 09:00:17;;;;;;;10.80;9.75;;;12.40;63.40;;;;;;4971793;28;20053;-78
2024/03/10 09:03:03;;;;;;;9.90;8.93;;;12.40;63.30;;;;;;4981374;28;20143;-78
2024/03/10 09:05:48;;;;;;;11.30;10.07;;;12.50;63.40;;;;;;4976278;28;20045;-78
2024/03/10 09:08:33;;;;;;;10.98;9.88;;;12.60;63.50;;;;;;4970750;28;20042;-78
2024/03/10 09:11:17;;;;;;;10.77;9.75;;;12.70;63.60;;;;;;4979297;28;20085;-78
2024/03/10 09:14:03;;;;;;;11.65;10.45;;;12.70;63.50;;;;;;4972086;28;20173;-79
2024/03/10 09:16:50;;;;;;;12.93;9.85;;;12.80;63.50;;;;;;4973984;28;20069;-80
2024/03/10 09:19:35;;;;;;;10.73;9.52;;;12.90;63.60;;;;;;4974061;28;20049;-79
2024/03/10 09:22:20;;;;;;;11.95;9.38;;;12.90;63.50;;;;;;4975167;28;20045;-78
2024/03/10 09:25:06;;;;;;;10.55;9.50;;;13.00;63.60;;;;;;4989694;28;20045;-81
2024/03/10 09:27:52;;;;;;;10.90;9.80;;;13.00;63.50;;;;;;4990772;28;20090;-82
2024/03/10 09:30:37;;;;;;;9.98;8.75;;;13.10;63.60;;;;;;4982057;28;20065;-81
2024/03/10 09:33:22;;;;;;;11.00;9.73;;;13.20;63.60;;;;;;4979657;28;20049;-81
2024/03/10 09:36:07;;;;;;;9.50;8.60;;;13.20;63.50;;;;;;4976537;28;20041;-81
2024/03/10 09:38:52;;;;;;;9.73;8.73;;;13.30;63.60;;;;;;4974773;28;20489;-81
2024/03/10 09:41:37;;;;;;;9.80;8.82;;;13.40;63.70;;;;;;4969736;28;20055;-81
2024/03/10 09:44:25;;;;;;;10.32;8.73;;;13.50;63.70;;;;;;4972941;28;20044;-80
2024/03/10 09:47:10;;;;;;;9.85;8.02;;;13.60;63.70;;;;;;4980159;28;20568;-79
2024/03/10 09:49:55;;;;;;;8.90;8.10;;;13.70;63.70;;;;;;4979125;28;20575;-80
2024/03/10 09:52:39;;;;;;;8.93;8.10;;;13.80;63.70;;;;;;4971323;28;20290;-80
2024/03/10 09:55:24;;;;;;;9.05;8.25;;;13.90;63.70;;;;;;4971939;28;20560;-80
2024/03/10 09:58:12;;;;;;;9.27;8.40;;;14.10;63.80;;;;;;4975485;28;20430;-80
2024/03/10 10:00:58;;;;;;;10.93;8.68;;;14.20;63.70;;;;;;4971345;28;20085;-80
2024/03/10 10:03:45;;;;;;;8.77;7.88;;;14.30;63.60;;;;;;4969739;28;20093;-80
2024/03/10 10:06:32;;;;;;;8.77;7.88;;;14.40;63.60;;;;;;4976272;28;20107;-81
2024/03/10 10:09:17;;;;;;;7.68;6.95;;;14.60;63.80;;;;;;4978609;28;20307;-80
2024/03/10 10:12:02;;;;;;;7.93;7.13;;;14.70;63.70;;;;;;4968536;28;20042;-80
2024/03/10 10:14:47;;;;;;;9.13;7.97;;;15.00;63.90;;;;;;4968837;28;20065;-79
2024/03/10 10:17:32;;;;;;;8.90;8.10;;;15.10;63.70;;;;;;4975802;28;20048;-80
2024/03/10 10:20:23;;;;;;;8.77;7.88;;;15.30;63.70;;;;;;4973107;28;20057;-80
2024/03/10 10:23:08;;;;;;;9.38;8.57;;;15.40;63.50;;;;;;4964468;28;20093;-80
2024/03/10 10:25:53;;;;;;;8.15;7.35;;;15.50;63.40;;;;;;4975520;28;20501;-80
2024/03/10 10:28:41;;;;;;;8.05;7.25;;;15.60;63.40;;;;;;4969510;28;20050;-80
2024/03/10 10:31:25;;;;;;;8.32;7.03;;;15.70;63.40;;;;;;4969731;28;20313;-80
2024/03/10 10:34:13;;;;;;;7.72;6.50;;;15.80;63.50;;;;;;4975880;28;20447;-79
2024/03/10 10:36:57;;;;;;;7.28;6.57;;;15.90;63.40;;;;;;4969302;28;20065;-79
2024/03/10 10:39:42;;;;;;;7.22;6.53;;;16.00;63.30;;;;;;4968287;28;20052;-80
2024/03/10 10:42:27;;;;;;;8.48;7.25;;;16.10;63.30;;;;;;4973572;28;20100;-79
2024/03/10 10:45:16;;;;;;;7.70;6.88;;;16.20;63.20;;;;;;4974711;28;20935;-80
2024/03/10 10:48:01;;;;;;;7.07;6.38;;;16.30;63.20;;;;;;4971030;28;20085;-80
2024/03/10 10:50:47;;;;;;;7.97;6.22;;;16.40;63.10;;;;;;4974169;28;20249;-80
2024/03/10 10:53:35;;;;;;;6.38;5.78;;;16.50;63.00;;;;;;4972380;28;20510;-79
2024/03/10 10:56:21;;;;;;;6.70;6.10;;;16.60;62.90;;;;;;4973336;28;20929;-79
2024/03/10 10:59:05;;;;;;;6.80;6.10;;;16.70;62.90;;;;;;4964299;28;20053;-79
2024/03/10 11:02:13;;;;;;;6.68;6.07;;;16.80;62.90;;;;;;4972821;28;20185;-78
2024/03/10 11:04:59;;;;;;;6.50;5.88;;;16.90;62.70;;;;;;4966411;28;20210;-78
2024/03/10 11:07:45;;;;;;;6.78;6.07;;;17.00;62.70;;;;;;4972078;28;20480;-79
2024/03/10 11:10:45;;;;;;;7.40;6.70;;;17.20;62.70;;;;;;4969836;28;20612;-79
2024/03/10 11:13:34;;;;;;;6.78;6.13;;;17.30;62.60;;;;;;4973981;28;20046;-78
2024/03/10 11:16:26;;;;;;;6.43;5.85;;;17.40;62.50;;;;;;4974781;28;20125;-78
2024/03/10 11:19:13;;;;;;;7.00;6.30;;;17.60;62.50;;;;;;4973311;28;20413;-79
2024/03/10 11:21:58;;;;;;;7.05;6.35;;;17.70;62.40;;;;;;4975451;28;20096;-78
2024/03/10 11:25:03;;;;;;;7.40;6.07;;;17.80;62.30;;;;;;4966924;28;20053;-79
2024/03/10 11:27:49;;;;;;;6.38;5.78;;;17.90;62.20;;;;;;4969975;28;20085;-79
2024/03/10 11:30:45;;;;;;;5.80;5.30;;;18.00;62.10;;;;;;4967807;28;20049;-78
2024/03/10 11:33:29;;;;;;;6.85;6.15;;;18.10;62.00;;;;;;4965483;28;20057;-79
2024/03/10 11:36:15;;;;;;;6.85;5.93;;;18.20;62.10;;;;;;4987623;28;20387;-78
2024/03/10 11:39:04;;;;;;;6.07;5.53;;;18.20;61.90;;;;;;4964298;28;20037;-78
2024/03/10 11:41:49;;;;;;;6.45;5.85;;;18.30;61.90;;;;;;4971511;28;20076;-78
2024/03/10 11:44:35;;;;;;;5.82;5.22;;;18.20;61.60;;;;;;4965680;28;20045;-79
2024/03/10 11:47:23;;;;;;;5.43;4.93;;;18.30;61.70;;;;;;4957736;28;20053;-79
2024/03/10 11:50:08;;;;;;;6.07;5.47;;;18.30;61.60;;;;;;4969831;28;20045;-77
2024/03/10 11:52:52;;;;;;;5.95;4.63;;;18.40;61.60;;;;;;4971758;28;20049;-77
2024/03/10 11:55:37;;;;;;;5.28;4.75;;;18.40;61.40;;;;;;4970621;28;20045;-77
2024/03/10 11:58:22;;;;;;;5.30;4.72;;;18.40;61.30;;;;;;4978191;28;20107;-77
2024/03/10 12:01:08;;;;;;;4.47;4.07;;;18.40;61.20;;;;;;4973104;28;21041;-78
2024/03/10 12:03:54;;;;;;;4.80;4.40;;;18.50;61.20;;;;;;4982746;28;20506;-78
2024/03/10 12:06:38;;;;;;;5.07;4.60;;;18.50;61.10;;;;;;4972324;28;20409;-77
2024/03/10 12:09:23;;;;;;;5.43;4.80;;;18.50;60.90;;;;;;4974728;28;20052;-77
2024/03/10 12:12:12;;;;;;;6.10;4.60;;;18.60;61.00;;;;;;4976669;28;20049;-77
2024/03/10 12:14:57;;;;;;;7.72;6.32;;;18.60;60.80;;;;;;4976223;28;20041;-77
2024/03/10 12:17:42;;;;;;;8.07;6.70;;;18.60;60.70;;;;;;4977935;28;20104;-78
2024/03/10 12:20:29;;;;;;;7.80;6.22;;;18.70;60.70;;;;;;4979299;28;20190;-77
2024/03/10 12:23:14;;;;;;;6.88;6.20;;;18.70;60.50;;;;;;4991528;28;20041;-78
2024/03/10 12:26:03;;;;;;;13.23;10.25;;;18.80;60.60;;;;;;4979557;28;20116;-79
2024/03/10 12:28:48;;;;;;;9.57;8.68;;;18.90;60.50;;;;;;4973726;28;20037;-79
2024/03/10 12:31:36;;;;;;;10.13;9.13;;;18.90;60.50;;;;;;4959517;28;20042;-77
2024/03/10 12:34:21;;;;;;;9.60;8.70;;;19.00;60.50;;;;;;4976853;28;20287;-77
2024/03/10 12:37:06;;;;;;;12.68;10.43;;;19.10;60.50;;;;;;4980527;28;20355;-78
2024/03/10 12:39:57;;;;;;;10.40;9.40;;;19.20;60.50;;;;;;4977923;28;20060;-77
2024/03/10 12:42:47;;;;;;;10.40;9.40;;;19.30;60.40;;;;;;4981085;28;20275;-77
2024/03/10 12:45:31;;;;;;;9.32;8.27;;;19.40;60.30;;;;;;4978430;28;20580;-77
2024/03/10 12:48:17;;;;;;;7.65;6.82;;;19.50;60.40;;;;;;4975430;28;20041;-77
2024/03/10 12:51:01;;;;;;;8.85;7.95;;;19.50;60.20;;;;;;4975221;28;20116;-79
2024/03/10 12:53:46;;;;;;;8.65;7.88;;;19.50;60.00;;;;;;4970708;28;20042;-78
2024/03/10 12:56:30;;;;;;;7.82;7.13;;;19.60;60.10;;;;;;4978460;28;20177;-77
2024/03/10 12:59:15;;;;;;;9.27;8.32;;;19.60;59.90;;;;;;4970616;28;20052;-79
2024/03/10 13:02:00;;;;;;;8.73;7.60;;;19.50;59.70;;;;;;4974427;28;20053;-78
2024/03/10 13:04:44;;;;;;;9.82;7.25;;;19.60;59.90;;;;;;4964848;28;20056;-78
2024/03/10 13:07:29;;;;;;;6.90;6.30;;;19.60;59.80;;;;;;4974101;28;20054;-78
2024/03/10 13:10:14;;;;;;;6.32;5.78;;;19.60;59.70;;;;;;4987107;28;21014;-78
2024/03/10 13:13:00;;;;;;;6.28;5.57;;;19.60;59.60;;;;;;4978740;28;20449;-78
2024/03/10 13:15:45;;;;;;;6.22;5.35;;;19.50;59.30;;;;;;4974181;28;20715;-77
2024/03/10 13:18:30;;;;;;;7.40;5.10;;;19.50;59.20;;;;;;4970501;28;20472;-77
2024/03/10 13:21:16;;;;;;;6.03;5.13;;;19.50;59.10;;;;;;4977817;28;20053;-79
2024/03/10 13:24:01;;;;;;;5.20;4.70;;;19.50;59.00;;;;;;4971597;28;20044;-78
2024/03/10 13:26:45;;;;;;;4.85;4.45;;;19.50;59.00;;;;;;4980291;28;20053;-79
2024/03/10 13:29:30;;;;;;;5.53;4.55;;;19.50;58.90;;;;;;4970606;28;20382;-79
2024/03/10 13:32:15;;;;;;;4.78;4.28;;;19.60;59.00;;;;;;4972135;28;20154;-79
2024/03/10 13:35:00;;;;;;;4.38;3.97;;;19.60;58.90;;;;;;4971731;28;20553;-78
2024/03/10 13:37:46;;;;;;;5.43;4.93;;;19.70;58.90;;;;;;4971844;28;20442;-79
2024/03/10 13:40:31;;;;;;;3.78;3.47;;;19.70;58.80;;;;;;4976294;28;20061;-80
2024/03/10 13:43:15;;;;;;;5.20;4.20;;;19.70;58.70;;;;;;4977327;28;20045;-81
2024/03/10 13:46:00;;;;;;;3.47;3.15;;;19.80;58.70;;;;;;4977704;28;20793;-81
2024/03/10 13:48:45;;;;;;;3.60;3.30;;;19.80;58.60;;;;;;4975763;28;20085;-79
2024/03/10 13:51:29;;;;;;;4.10;3.28;;;19.80;58.50;;;;;;4976190;28;20167;-78
2024/03/10 13:54:14;;;;;;;2.95;2.75;;;19.90;58.50;;;;;;4968117;28;20062;-79
2024/03/10 13:56:58;;;;;;;4.43;2.72;;;19.90;58.40;;;;;;4987545;28;20092;-79
2024/03/10 13:59:46;;;;;;;3.15;2.85;;;19.90;58.30;;;;;;4970789;28;20429;-79
2024/03/10 14:02:31;;;;;;;3.75;2.67;;;20.00;58.30;;;;;;4978502;28;20291;-79
2024/03/10 14:05:16;;;;;;;3.00;2.67;;;20.00;58.20;;;;;;4969796;28;20072;-79
2024/03/10 14:08:00;;;;;;;3.70;2.47;;;20.10;58.20;;;;;;4971583;28;20584;-78
2024/03/10 14:10:45;;;;;;;3.17;2.40;;;20.20;58.30;;;;;;4974349;28;20045;-78
2024/03/10 14:13:30;;;;;;;2.45;2.20;;;20.20;58.10;;;;;;4967350;28;20518;-79
2024/03/10 14:16:15;;;;;;;3.55;2.40;;;20.20;58.00;;;;;;4965860;28;20062;-78
2024/03/10 14:19:01;;;;;;;4.32;2.50;;;20.30;58.10;;;;;;4964968;28;20050;-79
2024/03/10 14:21:46;;;;;;;3.60;2.25;;;20.30;57.90;;;;;;4974454;28;20057;-78
2024/03/10 14:24:30;;;;;;;2.58;2.35;;;20.30;57.90;;;;;;4972737;28;21007;-78
2024/03/10 14:27:15;;;;;;;2.58;2.08;;;20.30;57.80;;;;;;4970351;28;20053;-78
2024/03/10 14:29:59;;;;;;;2.58;1.88;;;20.30;57.80;;;;;;4967260;28;20642;-79